Time;durP1;ratioP1;P1;durP2;ratioP2;P2;SDS_P1;SDS_P2;PMS_P1;PMS_P2;Temp;Humidity;BMP_temperature;BMP_pressure;BME280_temperature;BME280_humidity;BME280_pressure;Samples;Min_cycle;Max_cycle;Signal;HPM_P1;HPM_P2
2023/08/16 00:01:57;;;;;;;0.10;0.10;;;;;;;23.85;58.54;102044.59;5053248;28;20037;-69
2023/08/16 00:04:23;;;;;;;0.10;0.10;;;;;;;23.84;58.09;102052.03;5058529;28;20444;-69
2023/08/16 00:06:49;;;;;;;0.10;0.10;;;;;;;23.96;58.36;102051.69;5073144;28;20513;-68
2023/08/16 00:09:16;;;;;;;0.10;0.10;;;;;;;23.78;58.27;102046.88;5073171;28;20066;-68
2023/08/16 00:11:42;;;;;;;0.10;0.10;;;;;;;23.96;58.11;102048.94;5048460;28;20116;-67
2023/08/16 00:14:07;;;;;;;0.10;0.10;;;;;;;24.02;57.91;102051.38;5052951;28;20526;-68
2023/08/16 00:16:33;;;;;;;0.10;0.10;;;;;;;24.06;57.39;102046.13;5053395;28;20528;-67
2023/08/16 00:18:58;;;;;;;0.10;0.10;;;;;;;23.92;57.55;102045.94;5052745;28;20041;-67
2023/08/16 00:21:24;;;;;;;0.10;0.10;;;;;;;23.82;58.15;102047.94;5052858;28;20056;-68
2023/08/16 00:23:50;;;;;;;0.10;0.10;;;;;;;23.76;58.42;102051.81;5034885;28;20036;-68
2023/08/16 00:26:15;;;;;;;0.10;0.10;;;;;;;23.83;57.56;102047.66;5052640;28;20037;-67
2023/08/16 00:28:41;;;;;;;0.10;0.10;;;;;;;23.82;57.77;102054.22;5053014;28;20028;-68
2023/08/16 00:31:07;;;;;;;0.10;0.10;;;;;;;23.82;57.45;102050.69;5052598;28;20115;-68
2023/08/16 00:33:33;;;;;;;0.10;0.10;;;;;;;23.84;57.35;102051.22;5052486;28;20215;-68
2023/08/16 00:35:58;;;;;;;0.10;0.10;;;;;;;23.72;57.58;102050.75;5048282;28;20075;-69
2023/08/16 00:38:23;;;;;;;0.10;0.10;;;;;;;23.65;57.89;102048.28;5034416;28;20047;-67
2023/08/16 00:40:50;;;;;;;0.10;0.10;;;;;;;23.52;58.27;102048.94;5052993;28;20025;-68
2023/08/16 00:43:15;;;;;;;0.10;0.10;;;;;;;23.81;57.72;102051.78;5052262;28;20477;-68
2023/08/16 00:45:42;;;;;;;0.10;0.10;;;;;;;23.54;58.30;102049.47;5068649;28;20037;-69
2023/08/16 00:48:08;;;;;;;0.10;0.10;;;;;;;23.61;58.35;102047.22;5072427;28;20510;-65
2023/08/16 00:50:34;;;;;;;0.10;0.10;;;;;;;23.47;58.49;102037.97;5054128;28;20036;-68
2023/08/16 00:53:00;;;;;;;0.10;0.10;;;;;;;23.48;58.45;102040.44;5072217;28;20020;-67
2023/08/16 00:55:26;;;;;;;0.10;0.10;;;;;;;23.47;58.59;102040.69;5072617;28;20028;-68
2023/08/16 00:57:51;;;;;;;0.10;0.10;;;;;;;23.57;57.77;102043.41;5072041;28;20033;-68
2023/08/16 01:00:17;;;;;;;0.10;0.10;;;;;;;23.51;58.76;102044.53;5068717;28;20028;-67
2023/08/16 01:02:42;;;;;;;0.10;0.10;;;;;;;23.41;58.39;102047.31;5072150;28;20511;-67
2023/08/16 01:05:08;;;;;;;0.10;0.10;;;;;;;23.33;58.77;102042.44;5070884;28;20044;-69
2023/08/16 01:07:33;;;;;;;0.10;0.10;;;;;;;23.52;58.28;102051.66;5072147;28;20060;-67
2023/08/16 01:09:59;;;;;;;0.10;0.10;;;;;;;23.52;58.03;102058.00;5051966;28;20037;-67
2023/08/16 01:12:35;;;;;;;0.08;0.08;;;;;;;23.53;58.42;102058.78;5052099;28;20037;-68
2023/08/16 01:15:10;;;;;;;0.10;0.10;;;;;;;23.57;58.22;102059.06;5051602;28;20122;-67
2023/08/16 01:17:36;;;;;;;0.10;0.10;;;;;;;23.46;58.11;102066.50;5051737;28;20488;-68
2023/08/16 01:20:03;;;;;;;0.10;0.10;;;;;;;23.24;59.67;102058.63;5034005;28;20029;-68
2023/08/16 01:22:32;;;;;;;0.10;0.10;;;;;;;23.40;58.80;102059.41;5052118;28;20128;-69
2023/08/16 01:25:20;;;;;;;0.00;0.00;;;;;;;23.55;58.41;102065.63;5051842;28;20032;-69
2023/08/16 01:27:47;;;;;;;0.10;0.10;;;;;;;23.33;58.55;102076.16;5051139;28;20048;-67
2023/08/16 01:30:13;;;;;;;0.10;0.10;;;;;;;23.08;59.73;102080.88;5051588;28;20083;-67
2023/08/16 01:32:38;;;;;;;0.10;0.10;;;;;;;23.43;58.71;102091.75;5033173;28;20727;-69
2023/08/16 01:35:04;;;;;;;0.13;0.13;;;;;;;23.40;58.58;102087.66;5051238;28;20032;-69
2023/08/16 01:37:30;;;;;;;0.10;0.10;;;;;;;23.26;58.57;102086.59;5051872;28;20029;-69
2023/08/16 01:40:00;;;;;;;0.10;0.10;;;;;;;23.31;59.16;102094.81;5051204;28;20045;-70
2023/08/16 01:42:29;;;;;;;0.00;0.00;;;;;;;23.03;60.20;102098.19;5051317;28;20037;-67
2023/08/16 01:44:59;;;;;;;0.10;0.10;;;;;;;23.18;59.64;102092.66;5060882;28;20620;-67
2023/08/16 01:47:25;;;;;;;0.10;0.10;;;;;;;23.01;60.00;102089.41;5071317;28;20032;-69
2023/08/16 01:49:50;;;;;;;0.10;0.10;;;;;;;22.65;60.91;102087.81;5071039;28;20025;-69
2023/08/16 01:52:16;;;;;;;0.10;0.10;;;;;;;22.73;60.96;102087.25;5071627;28;20055;-70
2023/08/16 01:54:41;;;;;;;0.10;0.10;;;;;;;22.83;60.65;102087.25;5070909;28;20041;-67
2023/08/16 01:57:07;;;;;;;0.10;0.10;;;;;;;22.71;60.98;102083.97;5057061;28;20455;-69
2023/08/16 01:59:32;;;;;;;0.10;0.10;;;;;;;22.74;60.83;102086.16;5050786;28;20045;-66
2023/08/16 02:01:59;;;;;;;0.10;0.10;;;;;;;22.66;61.40;102094.94;5050654;28;20040;-68
2023/08/16 02:04:25;;;;;;;0.10;0.10;;;;;;;22.76;61.25;102092.16;5050826;28;20048;-68
2023/08/16 02:06:50;;;;;;;0.10;0.10;;;;;;;22.63;61.82;102096.31;5050663;28;20033;-68
2023/08/16 02:09:15;;;;;;;0.10;0.10;;;;;;;22.69;61.68;102097.94;5050536;28;20554;-70
2023/08/16 02:11:41;;;;;;;0.00;0.00;;;;;;;22.98;60.39;102087.19;5050678;28;20029;-68
2023/08/16 02:14:06;;;;;;;0.10;0.10;;;;;;;22.88;60.74;102089.97;5050700;28;20017;-66
2023/08/16 02:16:31;;;;;;;0.10;0.10;;;;;;;22.60;61.98;102090.56;5050190;28;20017;-69
2023/08/16 02:18:57;;;;;;;0.10;0.10;;;;;;;22.80;61.99;102087.78;5050661;28;20040;-71
2023/08/16 02:21:22;;;;;;;0.10;0.10;;;;;;;22.68;62.54;102088.06;5050560;28;20037;-68
2023/08/16 02:23:47;;;;;;;0.10;0.10;;;;;;;22.80;62.33;102082.28;5050561;28;20508;-68
2023/08/16 02:26:13;;;;;;;0.10;0.10;;;;;;;22.76;62.07;102074.91;5050353;28;20044;-66
2023/08/16 02:28:38;;;;;;;0.10;0.10;;;;;;;22.87;61.92;102076.53;5042843;28;20742;-66
2023/08/16 02:31:06;;;;;;;0.10;0.10;;;;;;;22.93;61.99;102080.91;5050323;28;20041;-68
2023/08/16 02:33:35;;;;;;;0.10;0.10;;;;;;;22.79;62.39;102077.09;5050330;28;20029;-67
2023/08/16 02:36:01;;;;;;;0.05;0.05;;;;;;;22.98;62.10;102080.88;5050046;28;20489;-67
2023/08/16 02:38:28;;;;;;;0.00;0.00;;;;;;;23.08;61.35;102080.88;5050325;28;20091;-67
2023/08/16 02:40:53;;;;;;;0.10;0.10;;;;;;;23.00;61.41;102079.53;5032388;28;20025;-69
2023/08/16 02:43:19;;;;;;;0.10;0.10;;;;;;;22.91;62.13;102081.19;5050500;28;20040;-67
2023/08/16 02:45:44;;;;;;;0.10;0.10;;;;;;;22.85;62.89;102078.72;5066433;28;20037;-67
2023/08/16 02:48:10;;;;;;;0.13;0.13;;;;;;;23.22;61.20;102074.53;5069505;28;20106;-68
2023/08/16 02:50:35;;;;;;;0.10;0.10;;;;;;;23.21;61.31;102077.56;5068860;28;20400;-69
2023/08/16 02:53:00;;;;;;;0.10;0.10;;;;;;;23.40;61.26;102082.19;5068733;28;20036;-68
2023/08/16 02:55:26;;;;;;;0.10;0.10;;;;;;;23.34;61.14;102087.97;5069660;28;20017;-67
2023/08/16 02:57:52;;;;;;;0.10;0.10;;;;;;;23.54;60.92;102094.19;5068811;28;20048;-69
2023/08/16 03:00:18;;;;;;;0.10;0.10;;;;;;;23.37;61.05;102093.69;5056637;28;20132;-67
2023/08/16 03:02:43;;;;;;;0.10;0.10;;;;;;;23.39;61.33;102083.25;5048951;28;20537;-67
2023/08/16 03:05:09;;;;;;;0.10;0.10;;;;;;;23.48;61.14;102095.31;5048371;28;20110;-68
2023/08/16 03:07:35;;;;;;;0.10;0.10;;;;;;;23.76;59.48;102095.75;5049064;28;20035;-68
2023/08/16 03:10:00;;;;;;;0.10;0.10;;;;;;;23.89;59.20;102095.09;5048791;28;20025;-68
2023/08/16 03:12:26;;;;;;;0.13;0.13;;;;;;;23.91;58.46;102099.22;5048876;28;20033;-68
2023/08/16 03:14:51;;;;;;;0.10;0.10;;;;;;;23.73;58.54;102096.28;5030290;28;20029;-68
2023/08/16 03:17:16;;;;;;;0.10;0.10;;;;;;;23.75;58.15;102091.34;5048214;28;20394;-68
2023/08/16 03:19:42;;;;;;;0.10;0.10;;;;;;;23.71;58.13;102093.00;5049271;28;20069;-68
2023/08/16 03:22:07;;;;;;;0.10;0.10;;;;;;;23.85;57.83;102088.53;5048324;28;20106;-67
2023/08/16 03:24:33;;;;;;;0.10;0.10;;;;;;;23.67;58.72;102086.44;5048466;28;20044;-69
2023/08/16 03:26:58;;;;;;;0.00;0.00;;;;;;;23.70;58.39;102092.22;5048780;28;20543;-68
2023/08/16 03:29:24;;;;;;;0.10;0.10;;;;;;;23.64;58.80;102095.25;5052419;28;20032;-68
2023/08/16 03:31:49;;;;;;;0.10;0.10;;;;;;;23.66;59.02;102095.78;5052587;28;20036;-68
2023/08/16 03:34:15;;;;;;;0.03;0.03;;;;;;;23.66;58.65;102093.03;5052954;28;20037;-69
2023/08/16 03:36:41;;;;;;;0.10;0.10;;;;;;;23.53;59.47;102088.97;5052273;28;20116;-68
2023/08/16 03:39:06;;;;;;;0.10;0.10;;;;;;;23.61;59.18;102090.31;5052394;28;20116;-67
2023/08/16 03:41:33;;;;;;;0.10;0.10;;;;;;;23.62;59.44;102094.72;5052399;28;20519;-67
2023/08/16 03:43:59;;;;;;;0.10;0.10;;;;;;;23.41;60.64;102100.28;5054667;28;20180;-68
2023/08/16 03:46:24;;;;;;;0.00;0.00;;;;;;;23.59;59.61;102098.03;5072977;28;20082;-68
2023/08/16 03:48:50;;;;;;;0.10;0.10;;;;;;;23.67;58.83;102098.25;5072160;28;20029;-68
2023/08/16 03:51:15;;;;;;;0.00;0.00;;;;;;;23.63;59.09;102101.81;5072108;28;20437;-68
2023/08/16 03:53:40;;;;;;;0.10;0.10;;;;;;;23.56;59.22;102102.16;5071954;28;20044;-68
2023/08/16 03:56:06;;;;;;;0.10;0.10;;;;;;;23.48;59.06;102108.22;5071878;28;20039;-69
2023/08/16 03:58:31;;;;;;;0.10;0.10;;;;;;;23.63;58.92;102107.31;5053756;28;20017;-68
2023/08/16 04:00:56;;;;;;;0.10;0.10;;;;;;;23.65;59.43;102105.94;5048176;28;20033;-68
2023/08/16 04:03:22;;;;;;;0.10;0.10;;;;;;;23.64;58.88;102117.19;5013243;28;20413;-68
2023/08/16 04:05:47;;;;;;;0.10;0.10;;;;;;;23.45;59.30;102115.06;5034943;28;20033;-70
2023/08/16 04:08:13;;;;;;;0.10;0.10;;;;;;;23.35;59.47;102122.53;5043926;28;20025;-69
2023/08/16 04:10:38;;;;;;;0.10;0.10;;;;;;;23.49;58.95;102118.91;5040234;28;20025;-69
2023/08/16 04:13:04;;;;;;;0.10;0.10;;;;;;;23.41;59.44;102124.97;5048602;28;20465;-68
2023/08/16 04:15:29;;;;;;;0.10;0.10;;;;;;;23.38;59.60;102125.53;5051279;28;20105;-71
2023/08/16 04:17:55;;;;;;;0.10;0.10;;;;;;;23.37;59.31;102128.56;5032339;28;20033;-69
2023/08/16 04:20:21;;;;;;;0.05;0.05;;;;;;;23.35;58.61;102128.03;5051309;28;20079;-69
2023/08/16 04:22:46;;;;;;;0.10;0.10;;;;;;;23.26;59.17;102132.38;5051975;28;20036;-68
2023/08/16 04:25:12;;;;;;;0.10;0.10;;;;;;;23.31;59.44;102133.22;5051467;28;20083;-66
2023/08/16 04:27:38;;;;;;;0.10;0.10;;;;;;;23.26;59.24;102126.91;5051213;28;20517;-67
2023/08/16 04:30:04;;;;;;;0.10;0.10;;;;;;;23.23;59.33;102124.72;5051214;28;20048;-67
2023/08/16 04:32:30;;;;;;;0.10;0.10;;;;;;;23.24;59.39;102121.69;5051385;28;20280;-68
2023/08/16 04:34:55;;;;;;;0.10;0.10;;;;;;;23.33;59.44;102116.50;5051254;28;20025;-67
2023/08/16 04:37:21;;;;;;;0.10;0.10;;;;;;;23.26;59.51;102124.16;5051319;28;20423;-70
2023/08/16 04:39:46;;;;;;;0.10;0.10;;;;;;;23.42;59.11;102134.84;5050015;28;20049;-68
2023/08/16 04:42:12;;;;;;;0.10;0.10;;;;;;;23.41;59.21;102133.19;5051185;28;20041;-68
2023/08/16 04:44:37;;;;;;;0.10;0.10;;;;;;;23.33;59.60;102139.25;5058208;28;20078;-68
2023/08/16 04:47:02;;;;;;;0.10;0.10;;;;;;;23.34;59.24;102151.06;5070990;28;20036;-67
2023/08/16 04:49:28;;;;;;;0.10;0.10;;;;;;;23.42;59.17;102151.31;5071537;28;20028;-68
2023/08/16 04:51:54;;;;;;;0.10;0.10;;;;;;;23.39;59.53;102160.09;5070981;28;20033;-69
2023/08/16 04:54:19;;;;;;;0.00;0.00;;;;;;;23.50;59.66;102152.66;5056140;28;20072;-71
2023/08/16 04:56:44;;;;;;;0.10;0.10;;;;;;;23.52;60.44;102150.47;5050626;28;20497;-68
2023/08/16 04:59:10;;;;;;;0.10;0.10;;;;;;;23.64;60.21;102155.63;5032756;28;20033;-68
2023/08/16 05:01:36;;;;;;;0.10;0.10;;;;;;;23.79;60.01;102161.06;5051111;28;20028;-68
2023/08/16 05:04:03;;;;;;;0.10;0.10;;;;;;;23.84;59.84;102152.81;5050448;28;20057;-68
2023/08/16 05:06:29;;;;;;;0.10;0.10;;;;;;;23.91;59.78;102158.81;5050600;28;20029;-68
2023/08/16 05:08:55;;;;;;;0.10;0.10;;;;;;;23.72;60.00;102166.88;5050710;28;20040;-68
2023/08/16 05:11:20;;;;;;;0.10;0.10;;;;;;;23.73;60.28;102167.66;5032576;28;20033;-70
2023/08/16 05:13:46;;;;;;;0.10;0.10;;;;;;;23.67;60.34;102172.34;5050833;28;20037;-68
2023/08/16 05:16:11;;;;;;;0.10;0.10;;;;;;;23.65;60.34;102177.31;5050192;28;20332;-70
2023/08/16 05:18:36;;;;;;;0.10;0.10;;;;;;;23.91;59.45;102167.03;5050483;28;20090;-68
2023/08/16 05:21:03;;;;;;;0.08;0.08;;;;;;;23.85;59.59;102174.50;5050204;28;20378;-67
2023/08/16 05:23:28;;;;;;;0.00;0.00;;;;;;;23.73;59.99;102164.91;5050571;28;20488;-67
2023/08/16 05:25:54;;;;;;;0.10;0.10;;;;;;;23.62;60.48;102166.06;5050163;28;20021;-69
2023/08/16 05:28:19;;;;;;;0.08;0.08;;;;;;;23.69;60.97;102183.06;5050973;28;20044;-68
2023/08/16 05:30:45;;;;;;;0.10;0.10;;;;;;;23.73;60.60;102178.66;5049922;28;20037;-68
2023/08/16 05:33:10;;;;;;;0.10;0.10;;;;;;;23.66;60.75;102175.38;5050084;28;20033;-69
2023/08/16 05:35:35;;;;;;;0.10;0.10;;;;;;;23.63;61.17;102167.69;5057416;28;20036;-67
2023/08/16 05:38:01;;;;;;;0.10;0.10;;;;;;;23.74;60.96;102163.84;5058106;28;20064;-67
2023/08/16 05:40:27;;;;;;;0.00;0.00;;;;;;;23.49;61.91;102175.69;5062068;28;20427;-67
2023/08/16 05:42:54;;;;;;;0.00;0.00;;;;;;;23.52;62.67;102177.91;5069550;28;20400;-67
2023/08/16 05:45:21;;;;;;;0.10;0.10;;;;;;;23.85;61.65;102190.13;5036891;28;20048;-66
2023/08/16 05:47:46;;;;;;;0.10;0.10;;;;;;;24.10;60.85;102188.13;5044365;28;20032;-68
2023/08/16 05:50:12;;;;;;;0.10;0.10;;;;;;;24.23;60.55;102189.44;5054811;28;20488;-68
2023/08/16 05:52:37;;;;;;;0.00;0.00;;;;;;;24.18;60.70;102187.53;5059554;28;20385;-67
2023/08/16 05:55:04;;;;;;;0.10;0.10;;;;;;;24.50;59.76;102192.56;5042218;28;20071;-67
2023/08/16 05:57:29;;;;;;;0.10;0.10;;;;;;;24.58;59.43;102191.97;5058572;28;20056;-66
2023/08/16 05:59:55;;;;;;;0.10;0.10;;;;;;;24.45;60.18;102195.34;5059366;28;20032;-68
2023/08/16 06:02:23;;;;;;;0.10;0.10;;;;;;;24.40;59.89;102192.63;5058184;28;20040;-69
2023/08/16 06:04:49;;;;;;;0.00;0.00;;;;;;;24.66;59.73;102199.59;5060339;28;20515;-67
2023/08/16 06:07:14;;;;;;;0.10;0.10;;;;;;;24.39;60.02;102199.25;5056776;28;20561;-69
2023/08/16 06:09:40;;;;;;;0.00;0.00;;;;;;;24.39;61.49;102197.28;5059259;28;20032;-67
2023/08/16 06:12:05;;;;;;;0.10;0.10;;;;;;;23.84;63.21;102196.75;5056456;28;20041;-68
2023/08/16 06:14:31;;;;;;;0.00;0.00;;;;;;;24.54;61.07;102203.81;5049438;28;20556;-70
2023/08/16 06:16:56;;;;;;;0.10;0.10;;;;;;;25.11;59.15;102198.41;5048755;28;20021;-68
2023/08/16 06:19:21;;;;;;;0.10;0.10;;;;;;;25.04;59.13;102203.44;5049515;28;20029;-67
2023/08/16 06:21:47;;;;;;;0.10;0.10;;;;;;;25.00;59.81;102210.63;5038216;28;20037;-70
2023/08/16 06:24:12;;;;;;;0.10;0.10;;;;;;;25.35;58.54;102218.56;5057129;28;20036;-68
2023/08/16 06:26:37;;;;;;;0.10;0.10;;;;;;;25.50;58.42;102221.19;5060768;28;20566;-67
2023/08/16 06:29:03;;;;;;;0.00;0.00;;;;;;;25.67;58.09;102206.97;5066874;28;20028;-67
2023/08/16 06:31:28;;;;;;;0.10;0.10;;;;;;;24.56;62.05;102201.59;5048207;28;20477;-67
2023/08/16 06:33:54;;;;;;;0.05;0.05;;;;;;;25.50;58.56;102206.59;5062798;28;20036;-70
2023/08/16 06:36:19;;;;;;;0.00;0.00;;;;;;;25.64;58.22;102204.78;5065259;28;20127;-66
2023/08/16 06:38:45;;;;;;;0.00;0.00;;;;;;;25.85;57.93;102209.75;5066659;28;20048;-67
2023/08/16 06:41:12;;;;;;;0.00;0.00;;;;;;;25.63;60.30;102211.41;5048161;28;20037;-70
2023/08/16 06:43:38;;;;;;;0.00;0.00;;;;;;;25.81;59.09;102216.13;5057202;28;20033;-67
2023/08/16 06:46:03;;;;;;;0.00;0.00;;;;;;;25.92;58.42;102218.50;5040337;28;20481;-66
2023/08/16 06:48:29;;;;;;;0.10;0.10;;;;;;;26.37;57.35;102219.84;5061795;28;20028;-68
2023/08/16 06:50:55;;;;;;;0.00;0.00;;;;;;;26.46;56.99;102229.09;5064304;28;20036;-66
2023/08/16 06:53:20;;;;;;;0.00;0.00;;;;;;;26.42;57.30;102218.94;5066481;28;20045;-70
2023/08/16 06:55:46;;;;;;;0.03;0.03;;;;;;;26.48;57.30;102226.84;5056454;28;20123;-68
2023/08/16 06:58:11;;;;;;;0.10;0.10;;;;;;;25.78;58.62;102219.50;5066346;28;20439;-66
2023/08/16 07:00:36;;;;;;;0.00;0.00;;;;;;;25.96;57.97;102221.47;5067098;28;20028;-68
2023/08/16 07:03:02;;;;;;;0.00;0.00;;;;;;;25.33;59.50;102212.53;5066258;28;20151;-67
2023/08/16 07:05:28;;;;;;;0.00;0.00;;;;;;;26.09;57.52;102218.84;5066107;28;20507;-71
2023/08/16 07:07:54;;;;;;;0.03;0.03;;;;;;;26.10;57.15;102214.97;5066717;28;20100;-67
2023/08/16 07:10:21;;;;;;;0.00;0.00;;;;;;;24.72;61.13;102227.88;5067273;28;20029;-67
2023/08/16 07:12:46;;;;;;;0.00;0.00;;;;;;;24.42;62.41;102224.22;5064993;28;20047;-69
2023/08/16 07:15:12;;;;;;;0.00;0.00;;;;;;;25.49;59.16;102225.06;5064793;28;20130;-69
2023/08/16 07:17:38;;;;;;;0.00;0.00;;;;;;;25.97;57.73;102229.44;5062093;28;20032;-67
2023/08/16 07:20:07;;;;;;;0.03;0.03;;;;;;;25.84;57.95;102232.91;5057574;28;20047;-67
2023/08/16 07:22:32;;;;;;;0.00;0.00;;;;;;;26.32;56.27;102230.94;5035509;28;20032;-69
2023/08/16 07:24:58;;;;;;;0.00;0.00;;;;;;;25.62;57.97;102238.13;5045132;28;20045;-68
2023/08/16 07:27:24;;;;;;;0.00;0.00;;;;;;;26.20;55.75;102238.00;5062645;28;20090;-68
2023/08/16 07:29:49;;;;;;;0.00;0.00;;;;;;;25.86;58.00;102238.97;5049327;28;20437;-68
2023/08/16 07:32:15;;;;;;;0.00;0.00;;;;;;;26.15;57.09;102238.06;5035822;28;20050;-67
2023/08/16 07:34:42;;;;;;;0.00;0.00;;;;;;;26.42;55.88;102238.25;5052649;28;20071;-69
2023/08/16 07:37:09;;;;;;;0.00;0.00;;;;;;;26.28;55.71;102242.88;5051526;28;20032;-68
2023/08/16 07:39:34;;;;;;;0.00;0.00;;;;;;;26.30;55.47;102237.88;5052609;28;20865;-68
2023/08/16 07:42:00;;;;;;;0.00;0.00;;;;;;;26.64;54.18;102241.22;5032356;28;20056;-68
2023/08/16 07:44:25;;;;;;;0.00;0.00;;;;;;;27.11;53.21;102242.97;5036289;28;20032;-67
2023/08/16 07:46:51;;;;;;;0.00;0.00;;;;;;;27.09;53.53;102239.69;5052230;28;20380;-67
2023/08/16 07:49:16;;;;;;;0.00;0.00;;;;;;;27.36;52.67;102239.84;5054425;28;20024;-67
2023/08/16 07:51:42;;;;;;;0.00;0.00;;;;;;;27.30;51.97;102239.03;5055291;28;20543;-67
2023/08/16 07:54:07;;;;;;;0.00;0.00;;;;;;;27.40;51.66;102249.94;5055041;28;20504;-67
2023/08/16 07:56:32;;;;;;;0.00;0.00;;;;;;;27.35;50.27;102241.78;5054321;28;20059;-69
2023/08/16 07:58:58;;;;;;;0.00;0.00;;;;;;;27.47;49.78;102246.78;5048167;28;20151;-67
2023/08/16 08:01:23;;;;;;;0.00;0.00;;;;;;;27.28;50.12;102248.78;5046532;28;20039;-68
2023/08/16 08:03:49;;;;;;;0.00;0.00;;;;;;;27.46;48.84;102245.97;5049128;28;20091;-68
2023/08/16 08:06:14;;;;;;;0.00;0.00;;;;;;;27.86;48.38;102255.44;5027403;28;20049;-67
2023/08/16 08:08:40;;;;;;;0.00;0.00;;;;;;;27.34;50.00;102251.16;5046894;28;20057;-68
2023/08/16 08:11:09;;;;;;;0.00;0.00;;;;;;;26.98;49.60;102258.38;5047111;28;20326;-68
2023/08/16 08:13:34;;;;;;;0.00;0.00;;;;;;;27.61;49.19;102255.94;5048692;28;20029;-69
2023/08/16 08:16:00;;;;;;;0.05;0.05;;;;;;;27.52;48.51;102250.28;5050605;28;20025;-70
2023/08/16 08:18:26;;;;;;;0.00;0.00;;;;;;;27.51;48.63;102256.94;5030623;28;20048;-68
2023/08/16 08:20:51;;;;;;;0.00;0.00;;;;;;;27.39;48.61;102253.00;5049952;28;20377;-68
2023/08/16 08:23:16;;;;;;;0.00;0.00;;;;;;;27.37;49.22;102250.56;5029880;28;20361;-66
2023/08/16 08:25:44;;;;;;;0.03;0.03;;;;;;;27.80;48.04;102257.47;5050845;28;20024;-66
2023/08/16 08:28:10;;;;;;;0.00;0.00;;;;;;;26.82;48.46;102265.25;5050527;28;20041;-67
2023/08/16 08:30:35;;;;;;;0.00;0.00;;;;;;;27.03;48.81;102266.56;5050079;28;20033;-69
2023/08/16 08:33:01;;;;;;;0.00;0.00;;;;;;;26.65;49.42;102257.47;5030125;28;20041;-74
2023/08/16 08:35:26;;;;;;;0.00;0.00;;;;;;;27.71;47.70;102252.97;5054793;28;20386;-68
2023/08/16 08:37:51;;;;;;;0.00;0.00;;;;;;;27.78;47.45;102261.66;5066118;28;20028;-69
2023/08/16 08:40:18;;;;;;;0.00;0.00;;;;;;;27.18;48.45;102266.34;5068518;28;20111;-67
2023/08/16 08:42:46;;;;;;;0.00;0.00;;;;;;;27.65;47.63;102270.75;5068613;28;20704;-69
2023/08/16 08:45:14;;;;;;;0.00;0.00;;;;;;;27.46;47.37;102270.81;5057769;28;20031;-67
2023/08/16 08:47:40;;;;;;;0.00;0.00;;;;;;;26.79;47.46;102265.88;5052567;28;20053;-68
2023/08/16 08:50:06;;;;;;;0.00;0.00;;;;;;;27.40;46.76;102265.72;5037207;28;20029;-67
2023/08/16 08:52:32;;;;;;;0.00;0.00;;;;;;;28.50;46.54;102269.00;5034440;28;20025;-67
2023/08/16 08:54:58;;;;;;;0.00;0.00;;;;;;;28.75;43.83;102270.41;5057320;28;20064;-66
2023/08/16 08:57:27;;;;;;;0.00;0.00;;;;;;;28.24;45.32;102264.34;5054572;28;20144;-66
2023/08/16 08:59:53;;;;;;;0.00;0.00;;;;;;;28.84;45.11;102265.75;5054851;28;20476;-67
2023/08/16 09:02:20;;;;;;;0.00;0.00;;;;;;;28.53;46.03;102265.63;5055670;28;20039;-69
2023/08/16 09:04:50;;;;;;;0.00;0.00;;;;;;;28.55;48.23;102274.47;5055903;28;20060;-66
2023/08/16 09:07:17;;;;;;;0.00;0.00;;;;;;;29.16;45.84;102265.56;5054642;28;20482;-69
2023/08/16 09:09:44;;;;;;;0.00;0.00;;;;;;;28.92;45.62;102265.00;5054545;28;20028;-69
2023/08/16 09:12:13;;;;;;;0.00;0.00;;;;;;;28.61;46.97;102276.00;5055694;28;20102;-68
2023/08/16 09:14:38;;;;;;;0.00;0.00;;;;;;;29.04;45.36;102273.56;5051491;28;20041;-68
2023/08/16 09:17:04;;;;;;;0.00;0.00;;;;;;;29.55;45.14;102277.81;5034928;28;20522;-69
2023/08/16 09:19:29;;;;;;;0.00;0.00;;;;;;;28.84;46.16;102282.34;5062302;28;20020;-69
2023/08/16 09:21:56;;;;;;;0.00;0.00;;;;;;;29.33;45.11;102273.13;5056110;28;20032;-67
2023/08/16 09:24:26;;;;;;;0.00;0.00;;;;;;;29.23;45.60;102273.38;5058661;28;20024;-66
2023/08/16 09:26:52;;;;;;;0.00;0.00;;;;;;;28.37;47.56;102278.16;5056939;28;20113;-67
2023/08/16 09:29:18;;;;;;;0.00;0.00;;;;;;;29.92;44.20;102269.88;5057195;28;20166;-66
2023/08/16 09:31:46;;;;;;;0.00;0.00;;;;;;;29.30;45.19;102269.06;5056205;28;20523;-66
2023/08/16 09:34:13;;;;;;;0.00;0.00;;;;;;;28.46;44.68;102270.75;5054159;28;20118;-67
2023/08/16 09:36:42;;;;;;;0.00;0.00;;;;;;;28.73;43.19;102269.91;5053844;28;20390;-67
2023/08/16 09:39:11;;;;;;;0.00;0.00;;;;;;;29.02;42.49;102275.84;5054164;28;20029;-69
2023/08/16 09:41:49;;;;;;;0.00;0.00;;;;;;;30.51;39.79;102262.88;5055520;28;20174;-68
2023/08/16 09:44:15;;;;;;;0.00;0.00;;;;;;;30.44;39.97;102267.25;5053145;28;20518;-64
2023/08/16 09:46:41;;;;;;;0.00;0.00;;;;;;;30.69;39.68;102267.28;5059124;28;20028;-64
2023/08/16 09:49:08;;;;;;;0.00;0.00;;;;;;;30.32;41.08;102262.34;5057992;28;20032;-64
2023/08/16 09:51:41;;;;;;;0.00;0.00;;;;;;;29.15;41.61;102258.34;5056868;28;20497;-64
2023/08/16 09:54:17;;;;;;;0.00;0.00;;;;;;;29.89;41.62;102262.22;5053678;28;20037;-66
2023/08/16 09:56:43;;;;;;;0.00;0.00;;;;;;;29.98;41.04;102259.44;5055649;28;20032;-65
2023/08/16 09:59:11;;;;;;;0.00;0.00;;;;;;;30.57;39.85;102253.22;5032346;28;20028;-66
2023/08/16 10:01:37;;;;;;;0.00;0.00;;;;;;;29.96;40.51;102250.63;5054883;28;20124;-66
2023/08/16 10:04:04;;;;;;;0.00;0.00;;;;;;;30.62;38.92;102252.25;5055770;28;20046;-66
2023/08/16 10:06:31;;;;;;;0.00;0.00;;;;;;;29.57;40.07;102245.06;5036855;28;20056;-67
2023/08/16 10:08:57;;;;;;;0.00;0.00;;;;;;;28.91;42.20;102249.53;5054601;28;20110;-65
2023/08/16 10:11:23;;;;;;;0.00;0.00;;;;;;;28.74;42.76;102248.59;5055369;28;20029;-65
2023/08/16 10:13:49;;;;;;;0.00;0.00;;;;;;;30.59;39.95;102241.81;5036955;28;20059;-63
2023/08/16 10:16:15;;;;;;;0.00;0.00;;;;;;;30.87;40.57;102246.75;5056664;28;20041;-65
2023/08/16 10:18:46;;;;;;;0.00;0.00;;;;;;;29.52;40.62;102240.50;5035479;28;20039;-65
2023/08/16 10:21:17;;;;;;;0.00;0.00;;;;;;;29.87;40.00;102244.25;5050814;28;20486;-65
2023/08/16 10:23:44;;;;;;;0.00;0.00;;;;;;;29.58;40.78;102242.00;5037959;28;20113;-64
2023/08/16 10:26:19;;;;;;;0.00;0.00;;;;;;;29.23;40.96;102243.75;5058252;28;20480;-63
2023/08/16 10:28:51;;;;;;;0.00;0.00;;;;;;;30.11;40.31;102247.44;5053076;28;20017;-64
2023/08/16 10:31:21;;;;;;;0.00;0.00;;;;;;;30.77;39.30;102249.81;5052912;28;20617;-65
2023/08/16 10:33:50;;;;;;;0.00;0.00;;;;;;;29.96;41.09;102251.47;5044006;28;20567;-65
2023/08/16 10:36:16;;;;;;;0.00;0.00;;;;;;;29.58;41.75;102252.25;5048171;28;20047;-64
2023/08/16 10:38:42;;;;;;;0.00;0.00;;;;;;;30.20;40.17;102253.81;5046558;28;20040;-66
2023/08/16 10:41:15;;;;;;;0.00;0.00;;;;;;;29.05;41.43;102250.28;5056038;28;20101;-65
2023/08/16 10:43:53;;;;;;;0.00;0.00;;;;;;;29.87;40.51;102247.84;5061797;28;20028;-65
2023/08/16 10:46:34;;;;;;;0.00;0.00;;;;;;;29.43;41.98;102250.72;5060331;28;20036;-65
2023/08/16 10:49:01;;;;;;;0.00;0.00;;;;;;;28.27;43.53;102245.19;5061472;28;20219;-64
2023/08/16 10:51:27;;;;;;;0.00;0.00;;;;;;;29.89;41.71;102242.81;5047954;28;20033;-63
2023/08/16 10:53:57;;;;;;;0.00;0.00;;;;;;;30.19;39.01;102243.88;5049616;28;20033;-65
2023/08/16 10:56:22;;;;;;;0.00;0.00;;;;;;;30.50;39.11;102243.78;5053292;28;20442;-64
2023/08/16 10:58:49;;;;;;;0.00;0.00;;;;;;;30.31;38.78;102246.84;5053626;28;20043;-64
2023/08/16 11:01:16;;;;;;;0.00;0.00;;;;;;;28.80;41.43;102242.59;5052812;28;20055;-65
2023/08/16 11:03:48;;;;;;;0.00;0.00;;;;;;;29.96;39.41;102250.63;5053758;28;20064;-64
2023/08/16 11:06:15;;;;;;;0.00;0.00;;;;;;;30.12;39.54;102247.09;5054210;28;20064;-65
2023/08/16 11:08:44;;;;;;;0.00;0.00;;;;;;;30.01;39.24;102245.78;5049570;28;20048;-65
2023/08/16 11:11:12;;;;;;;0.00;0.00;;;;;;;29.92;39.51;102255.19;5029606;28;20060;-66
2023/08/16 11:13:42;;;;;;;0.00;0.00;;;;;;;30.69;39.24;102249.81;5033345;28;20538;-65
2023/08/16 11:16:10;;;;;;;0.00;0.00;;;;;;;30.76;38.80;102258.47;5050582;28;20265;-64
2023/08/16 11:18:36;;;;;;;0.00;0.00;;;;;;;30.74;39.22;102261.56;5053031;28;20045;-65
2023/08/16 11:21:03;;;;;;;0.00;0.00;;;;;;;31.11;38.17;102254.56;5052692;28;20040;-68